Terminal Aerodrome Forecast
Issued by NWS King Salmon, AK

Home | Current Version | Previous Version | Text Only | Print | Product List | Glossary On
Versions: 1 2 3 4 5 6 7 8 9 10 11 12 13 14 15 16 17 18 19 20 21 22 23 24 25 26 27 28
000
FTAK31 PANC 190540
TAFAKN
TAF
PAKN 190540Z 1906/2006 12014G22KT P6SM FEW030 SCT040
     FM190900 12015G25KT P6SM -SHRA BKN040 BKN060
     FM191800 16015G25KT P6SM SCT015 OVC025
     FM200000 22022G30KT P6SM SCT010 OVC020=

USA.gov is the U.S. government's official web portal to all federal, state and local government web resources and services.